M I D A S
Marine Information and Data Acquisition System
Tripno 150 of the Zeeleeuw from 2001-08-21 06:17:17 to 2001-08-21 18:35:00
Back to CruiseResearch ActivitiesStationsMapUnderway DataData graphs

EquipmentUnitsComment
TimeDGPSUTC
LatitudeDGPSDM.mWGS84
LongitudeDGPSDM.mWGS84
TemperatureSBE03/SBE38deg celciusITS90
ConductivitySBE21S/mITS90
SalinitySBE21 Practical Salinity Units
ChlorophylAChelsea fluorimeterg/lCalibrated in Aceton
Missing or incorrect values are displayed as -999
Sea surface data collected by the RV Zeeleeuw from 2001-08-21 06:17:17 to 2001-08-21 18:35:00
Time Latitude Longitude Temperature Conductivity Salinity ChlorophylA
2001-08-21 06:19:41 51°13.678 2°55.921 -999 -999 -999  
2001-08-21 06:20:41 51°13.678 2°55.922 -999 -999 -999  
2001-08-21 06:21:41 51°13.678 2°55.922 -999 -999 -999  
2001-08-21 06:22:41 51°13.678 2°55.922 -999 -999 -999  
2001-08-21 06:23:53 51°13.678 2°55.922 -999 -999 -999  
2001-08-21 06:24:53 51°13.678 2°55.922 -999 -999 -999  
2001-08-21 06:25:53 51°13.678 2°55.922 -999 -999 -999  
2001-08-21 06:26:53 51°13.678 2°55.923 -999 -999 -999  
2001-08-21 06:27:53 51°13.678 2°55.923 -999 -999 -999  
2001-08-21 06:28:53 51°13.678 2°55.923 -999 -999 -999  
2001-08-21 06:29:53 51°13.678 2°55.923 -999 -999 -999  
2001-08-21 06:30:53 51°13.678 2°55.923 -999 -999 -999  
2001-08-21 06:31:53 51°13.678 2°55.922 -999 -999 -999  
2001-08-21 06:32:53 51°13.678 2°55.922 -999 -999 -999  
2001-08-21 06:33:53 51°13.678 2°55.922 -999 -999 -999  
2001-08-21 06:34:53 51°13.678 2°55.923 -999 -999 -999  
2001-08-21 06:35:53 51°13.678 2°55.923 -999 -999 -999  
2001-08-21 06:36:53 51°13.677 2°55.923 -999 -999 -999  
2001-08-21 06:37:53 51°13.677 2°55.923 -999 -999 -999  
2001-08-21 06:38:53 51°13.677 2°55.923 -999 -999 -999  
2001-08-21 06:39:53 51°13.677 2°55.924 -999 -999 -999  
2001-08-21 06:40:53 51°13.676 2°55.924 -999 -999 -999  
2001-08-21 06:41:53 51°13.676 2°55.923 -999 -999 -999  
2001-08-21 06:42:53 51°13.686 2°55.882 -999 -999 -999  
2001-08-21 06:43:53 51°13.706 2°55.794 -999 -999 -999  
2001-08-21 06:44:53 51°13.711 2°55.724 -999 -999 -999  
2001-08-21 06:45:53 51°13.737 2°55.733 -999 -999 -999  
2001-08-21 06:46:53 51°13.734 2°55.725 -999 -999 -999  
2001-08-21 06:47:53 51°13.805 2°55.662 -999 -999 -999  
2001-08-21 06:48:53 51°13.877 2°55.605 -999 -999 -999  
2001-08-21 06:49:53 51°13.956 2°55.549 -999 -999 -999  
2001-08-21 06:50:53 51°14.036 2°55.493 -999 -999 -999  
2001-08-21 06:51:53 51°14.121 2°55.428 -999 -999 -999  
2001-08-21 06:52:53 51°14.211 2°55.338 -999 -999 -999  
2001-08-21 06:53:53 51°14.304 2°55.192 -999 -999 -999  
2001-08-21 06:54:53 51°14.395 2°54.996 -999 -999 -999  
2001-08-21 06:55:53 51°14.418 2°54.708 -999 -999 -999  
2001-08-21 06:56:53 51°14.41 2°54.358 -999 -999 -999  
2001-08-21 06:57:53 51°14.319 2°54.014 -999 -999 -999  
2001-08-21 06:58:53 51°14.216 2°53.675 -999 -999 -999  
2001-08-21 06:59:53 51°14.091 2°53.35 -999 -999 -999  
2001-08-21 07:00:53 51°13.976 2°53.011 -999 -999 -999  
2001-08-21 07:01:53 51°13.855 2°52.669 -999 -999 -999  
2001-08-21 07:02:53 51°13.73 2°52.329 -999 -999 -999  
2001-08-21 07:03:53 51°13.601 2°51.995 -999 -999 -999  
2001-08-21 07:04:53 51°13.482 2°51.652 -999 -999 -999  
2001-08-21 07:05:53 51°13.363 2°51.308 -999 -999 -999  
2001-08-21 07:06:53 51°13.249 2°50.96 -999 -999 -999  
2001-08-21 07:07:53 51°13.135 2°50.61 -999 -999 -999  
2001-08-21 07:08:53 51°13.023 2°50.257 -999 -999 -999  
2001-08-21 07:09:53 51°12.905 2°49.908 -999 -999 -999  
2001-08-21 07:10:53 51°12.783 2°49.563 -999 -999 -999  
2001-08-21 07:11:53 51°12.663 2°49.216 -999 -999 -999  
2001-08-21 07:12:53 51°12.543 2°48.872 -999 -999 -999  
2001-08-21 07:13:53 51°12.429 2°48.522 -999 -999 -999  
2001-08-21 07:14:53 51°12.321 2°48.167 -999 -999 -999  
2001-08-21 07:15:53 51°12.217 2°47.81 -999 -999 -999  
2001-08-21 07:16:53 51°12.108 2°47.457 -999 -999 -999  
2001-08-21 07:17:53 51°12.008 2°47.097 -999 -999 -999  
2001-08-21 07:18:53 51°11.911 2°46.734 -999 -999 -999  
2001-08-21 07:19:53 51°11.807 2°46.375 -999 -999 -999  
2001-08-21 07:20:53 51°11.701 2°46.017 -999 -999 -999  
2001-08-21 07:21:53 51°11.603 2°45.654 -999 -999 -999  
2001-08-21 07:22:53 51°11.508 2°45.29 -999 -999 -999  
2001-08-21 07:23:53 51°11.409 2°44.928 -999 -999 -999  
2001-08-21 07:24:53 51°11.313 2°44.565 -999 -999 -999  
2001-08-21 07:25:53 51°11.22 2°44.2 -999 -999 -999  
2001-08-21 07:26:53 51°11.132 2°43.832 -999 -999 -999  
2001-08-21 07:27:53 51°11.057 2°43.458 -999 -999 -999  
2001-08-21 07:28:53 51°10.983 2°43.084 -999 -999 -999  
2001-08-21 07:29:53 51°10.9 2°42.714 -999 -999 -999  
2001-08-21 07:30:53 51°10.819 2°42.345 -999 -999 -999  
2001-08-21 07:31:53 51°10.731 2°41.979 -999 -999 -999  
2001-08-21 07:32:53 51°10.639 2°41.615 -999 -999 -999  
2001-08-21 07:33:53 51°10.552 2°41.249 -999 -999 -999  
2001-08-21 07:34:53 51°10.463 2°40.884 -999 -999 -999  
2001-08-21 07:35:53 51°10.369 2°40.52 -999 -999 -999  
2001-08-21 07:36:53 51°10.28 2°40.156 -999 -999 -999  
2001-08-21 07:37:53 51°10.187 2°39.793 -999 -999 -999  
2001-08-21 07:38:53 51°10.098 2°39.428 -999 -999 -999  
2001-08-21 07:39:53 51°10.008 2°39.063 -999 -999 -999  
2001-08-21 07:40:53 51°9.915 2°38.701 -999 -999 -999  
2001-08-21 07:41:53 51°9.823 2°38.337 -999 -999 -999  
2001-08-21 07:42:53 51°9.732 2°37.973 -999 -999 -999  
2001-08-21 07:43:53 51°9.638 2°37.61 -999 -999 -999  
2001-08-21 07:44:53 51°9.547 2°37.244 -999 -999 -999  
2001-08-21 07:45:53 51°9.452 2°36.879 -999 -999 -999  
2001-08-21 07:46:53 51°9.358 2°36.512 -999 -999 -999  
2001-08-21 07:47:53 51°9.279 2°36.198 -999 -999 -999  
2001-08-21 07:48:53 51°9.251 2°36.065 -999 -999 -999  
2001-08-21 07:49:53 51°9.236 2°36.039 -999 -999 -999  
2001-08-21 07:50:53 51°9.224 2°36.012 -999 -999 -999  
2001-08-21 07:51:53 51°9.213 2°35.983 -999 -999 -999  
2001-08-21 07:52:55 51°9.204 2°35.952 -999 -999 -999  
2001-08-21 07:53:53 51°9.198 2°35.916 -999 -999 -999  
2001-08-21 07:54:53 51°9.243 2°35.81 -999 -999 -999  
2001-08-21 07:55:53 51°9.31 2°35.713 -999 -999 -999  
2001-08-21 07:56:53 51°9.357 2°35.645 -999 -999 -999  
2001-08-21 07:57:53 51°9.394 2°35.591 -999 -999 -999  
2001-08-21 07:58:53 51°9.425 2°35.532 -999 -999 -999  
2001-08-21 07:59:53 51°9.447 2°35.472 -999 -999 -999  
2001-08-21 08:00:53 51°9.462 2°35.414 -999 -999 -999  
2001-08-21 08:01:53 51°9.475 2°35.359 -999 -999 -999  
2001-08-21 08:02:53 51°9.485 2°35.306 -999 -999 -999  
2001-08-21 08:03:53 51°9.493 2°35.254 -999 -999 -999  
2001-08-21 08:04:53 51°9.491 2°35.216 -999 -999 -999  
2001-08-21 08:05:53 51°9.486 2°35.182 -999 -999 -999  
2001-08-21 08:06:53 51°9.52 2°35.123 -999 -999 -999  
2001-08-21 08:07:53 51°9.676 2°35.169 -999 -999 -999  
2001-08-21 08:08:53 51°9.866 2°35.286 -999 -999 -999  
2001-08-21 08:09:53 51°10.056 2°35.41 -999 -999 -999  
2001-08-21 08:10:53 51°10.238 2°35.562 -999 -999 -999  
2001-08-21 08:11:53 51°10.417 2°35.73 -999 -999 -999  
2001-08-21 08:12:53 51°10.59 2°35.903 -999 -999 -999  
2001-08-21 08:13:53 51°10.737 2°36.132 -999 -999 -999  
2001-08-21 08:14:53 51°10.88 2°36.366 -999 -999 -999  
2001-08-21 08:15:53 51°11.025 2°36.597 -999 -999 -999  
2001-08-21 08:16:53 51°11.164 2°36.836 -999 -999 -999  
2001-08-21 08:17:53 51°11.301 2°37.078 -999 -999 -999  
2001-08-21 08:18:53 51°11.43 2°37.33 -999 -999 -999  
2001-08-21 08:19:53 51°11.557 2°37.582 -999 -999 -999  
2001-08-21 08:20:53 51°11.684 2°37.835 -999 -999 -999  
2001-08-21 08:21:53 51°11.809 2°38.09 -999 -999 -999  
2001-08-21 08:22:53 51°11.936 2°38.342 -999 -999 -999  
2001-08-21 08:23:53 51°12.062 2°38.595 -999 -999 -999  
2001-08-21 08:24:53 51°12.186 2°38.85 -999 -999 -999  
2001-08-21 08:25:53 51°12.313 2°39.101 -999 -999 -999  
2001-08-21 08:26:53 51°12.439 2°39.352 -999 -999 -999  
2001-08-21 08:27:53 51°12.565 2°39.603 -999 -999 -999  
2001-08-21 08:28:53 51°12.691 2°39.855 -999 -999 -999  
2001-08-21 08:29:53 51°12.816 2°40.107 -999 -999 -999  
2001-08-21 08:30:53 51°12.941 2°40.359 -999 -999 -999  
2001-08-21 08:31:53 51°13.06 2°40.618 -999 -999 -999  
2001-08-21 08:32:53 51°13.183 2°40.871 -999 -999 -999  
2001-08-21 08:33:53 51°13.308 2°41.123 -999 -999 -999  
2001-08-21 08:34:53 51°13.435 2°41.373 -999 -999 -999  
2001-08-21 08:35:53 51°13.556 2°41.632 -999 -999 -999  
2001-08-21 08:36:53 51°13.681 2°41.882 -999 -999 -999  
2001-08-21 08:37:53 51°13.815 2°42.122 -999 -999 -999  
2001-08-21 08:38:53 51°13.941 2°42.372 -999 -999 -999  
2001-08-21 08:39:53 51°14.06 2°42.63 -999 -999 -999  
2001-08-21 08:40:53 51°14.174 2°42.889 -999 -999 -999  
2001-08-21 08:41:53 51°14.284 2°43.155 -999 -999 -999  
2001-08-21 08:42:53 51°14.394 2°43.42 -999 -999 -999  
2001-08-21 08:43:53 51°14.51 2°43.682 -999 -999 -999  
2001-08-21 08:44:53 51°14.623 2°43.945 -999 -999 -999  
2001-08-21 08:45:53 51°14.731 2°44.215 -999 -999 -999  
2001-08-21 08:46:53 51°14.839 2°44.484 -999 -999 -999  
2001-08-21 08:47:53 51°14.945 2°44.755 -999 -999 -999  
2001-08-21 08:48:53 51°15.053 2°45.028 -999 -999 -999  
2001-08-21 08:49:53 51°15.164 2°45.293 -999 -999 -999  
2001-08-21 08:50:53 51°15.269 2°45.567 -999 -999 -999  
2001-08-21 08:51:53 51°15.385 2°45.833 -999 -999 -999  
2001-08-21 08:52:53 51°15.498 2°46.099 -999 -999 -999  
2001-08-21 08:53:53 51°15.608 2°46.369 -999 -999 -999  
2001-08-21 08:54:53 51°15.721 2°46.641 -999 -999 -999  
2001-08-21 08:55:53 51°15.836 2°46.911 -999 -999 -999  
2001-08-21 08:56:53 51°15.945 2°47.188 -999 -999 -999  
2001-08-21 08:57:53 51°16.05 2°47.472 -999 -999 -999  
2001-08-21 08:58:53 51°16.148 2°47.763 -999 -999 -999  
2001-08-21 08:59:53 51°16.237 2°48.06 -999 -999 -999  
2001-08-21 09:00:53 51°16.302 2°48.372 -999 -999 -999  
2001-08-21 09:01:53 51°16.357 2°48.69 -999 -999 -999  
2001-08-21 09:02:53 51°16.41 2°49.009 -999 -999 -999  
2001-08-21 09:03:53 51°16.464 2°49.326 -999 -999 -999  
2001-08-21 09:04:53 51°16.538 2°49.627 -999 -999 -999  
2001-08-21 09:05:53 51°16.718 2°49.76 -999 -999 -999  
2001-08-21 09:06:53 51°16.913 2°49.837 -999 -999 -999  
2001-08-21 09:07:53 51°17.106 2°49.895 -999 -999 -999  
2001-08-21 09:08:53 51°17.304 2°49.952 -999 -999 -999  
2001-08-21 09:09:53 51°17.509 2°49.969 -999 -999 -999  
2001-08-21 09:10:53 51°17.711 2°50.007 -999 -999 -999  
2001-08-21 09:11:53 51°17.893 2°50.132 -999 -999 -999  
2001-08-21 09:12:53 51°18.055 2°50.317 -999 -999 -999  
2001-08-21 09:13:53 51°18.206 2°50.523 -999 -999 -999  
2001-08-21 09:14:53 51°18.357 2°50.732 -999 -999 -999  
2001-08-21 09:15:53 51°18.495 2°50.93 -999 -999 -999  
2001-08-21 09:16:53 51°18.528 2°51.03 -999 -999 -999  
2001-08-21 09:17:53 51°18.526 2°51.02 -999 -999 -999  
2001-08-21 09:18:53 51°18.523 2°51.001 -999 -999 -999  
2001-08-21 09:19:53 51°18.518 2°50.982 -999 -999 -999  
2001-08-21 09:20:53 51°18.517 2°50.962 -999 -999 -999  
2001-08-21 09:21:53 51°18.563 2°50.936 -999 -999 -999  
2001-08-21 09:22:53 51°18.571 2°50.901 -999 -999 -999  
2001-08-21 09:23:53 51°18.553 2°50.876 -999 -999 -999  
2001-08-21 09:24:53 51°18.537 2°50.847 -999 -999 -999  
2001-08-21 09:25:53 51°18.556 2°50.797 -999 -999 -999  
2001-08-21 09:26:53 51°18.589 2°50.758 -999 -999 -999  
2001-08-21 09:27:53 51°18.61 2°50.728 -999 -999 -999  
2001-08-21 09:28:53 51°18.623 2°50.694 -999 -999 -999  
2001-08-21 09:29:53 51°18.63 2°50.655 -999 -999 -999  
2001-08-21 09:30:53 51°18.634 2°50.615 -999 -999 -999  
2001-08-21 09:31:53 51°18.633 2°50.572 -999 -999 -999  
2001-08-21 09:32:53 51°18.631 2°50.531 -999 -999 -999  
2001-08-21 09:33:53 51°18.631 2°50.486 -999 -999 -999  
2001-08-21 09:34:53 51°18.646 2°50.429 -999 -999 -999  
2001-08-21 09:35:53 51°18.673 2°50.376 -999 -999 -999  
2001-08-21 09:36:53 51°18.707 2°50.327 -999 -999 -999  
2001-08-21 09:37:53 51°18.748 2°50.286 -999 -999 -999  
2001-08-21 09:38:53 51°18.793 2°50.25 -999 -999 -999  
2001-08-21 09:39:53 51°18.84 2°50.214 -999 -999 -999  
2001-08-21 09:40:53 51°18.886 2°50.199 -999 -999 -999  
2001-08-21 09:41:53 51°18.929 2°50.209 -999 -999 -999  
2001-08-21 09:42:53 51°18.974 2°50.221 -999 -999 -999  
2001-08-21 09:43:53 51°19.019 2°50.232 -999 -999 -999  
2001-08-21 09:44:53 51°19.064 2°50.246 -999 -999 -999  
2001-08-21 09:45:53 51°19.109 2°50.262 -999 -999 -999  
2001-08-21 09:46:53 51°19.156 2°50.27 -999 -999 -999  
2001-08-21 09:47:53 51°19.205 2°50.276 -999 -999 -999  
2001-08-21 09:48:53 51°19.254 2°50.282 -999 -999 -999  
2001-08-21 09:49:53 51°19.304 2°50.286 -999 -999 -999  
2001-08-21 09:50:53 51°19.354 2°50.288 -999 -999 -999  
2001-08-21 09:51:53 51°19.404 2°50.292 -999 -999 -999  
2001-08-21 09:52:53 51°19.453 2°50.303 -999 -999 -999  
2001-08-21 09:53:53 51°19.503 2°50.316 -999 -999 -999  
2001-08-21 09:54:53 51°19.554 2°50.321 -999 -999 -999  
2001-08-21 09:55:53 51°19.607 2°50.316 -999 -999 -999  
2001-08-21 09:56:53 51°19.66 2°50.305 -999 -999 -999  
2001-08-21 09:57:53 51°19.713 2°50.298 -999 -999 -999  
2001-08-21 09:58:53 51°19.766 2°50.29 -999 -999 -999  
2001-08-21 09:59:53 51°19.819 2°50.283 -999 -999 -999  
2001-08-21 10:00:53 51°19.872 2°50.269 -999 -999 -999  
2001-08-21 10:01:53 51°19.924 2°50.253 -999 -999 -999  
2001-08-21 10:02:53 51°19.975 2°50.237 -999 -999 -999  
2001-08-21 10:03:53 51°20.024 2°50.233 -999 -999 -999  
2001-08-21 10:04:53 51°20.067 2°50.242 -999 -999 -999  
2001-08-21 10:05:53 51°20.112 2°50.25 -999 -999 -999  
2001-08-21 10:06:53 51°20.156 2°50.257 -999 -999 -999  
2001-08-21 10:07:53 51°20.196 2°50.277 -999 -999 -999  
2001-08-21 10:08:53 51°20.239 2°50.294 -999 -999 -999  
2001-08-21 10:09:53 51°20.284 2°50.307 -999 -999 -999  
2001-08-21 10:10:53 51°20.36 2°50.335 -999 -999 -999  
2001-08-21 10:11:53 51°20.394 2°50.338 -999 -999 -999  
2001-08-21 10:12:53 51°20.38 2°50.309 -999 -999 -999  
2001-08-21 10:13:53 51°20.365 2°50.269 -999 -999 -999  
2001-08-21 10:14:53 51°20.35 2°50.231 -999 -999 -999  
2001-08-21 10:15:53 51°20.334 2°50.195 -999 -999 -999  
2001-08-21 10:16:53 51°20.317 2°50.174 -999 -999 -999  
2001-08-21 10:17:53 51°20.326 2°50.22 -999 -999 -999  
2001-08-21 10:18:53 51°20.326 2°50.196 -999 -999 -999  
2001-08-21 10:19:53 51°20.325 2°50.163 -999 -999 -999  
2001-08-21 10:20:53 51°20.321 2°50.125 -999 -999 -999  
2001-08-21 10:21:53 51°20.321 2°50.087 -999 -999 -999  
2001-08-21 10:22:53 51°20.325 2°50.051 -999 -999 -999  
2001-08-21 10:23:53 51°20.334 2°50.014 -999 -999 -999  
2001-08-21 10:24:53 51°20.344 2°49.978 -999 -999 -999  
2001-08-21 10:25:53 51°20.351 2°49.944 -999 -999 -999  
2001-08-21 10:26:53 51°20.356 2°49.905 -999 -999 -999  
2001-08-21 10:27:53 51°20.342 2°49.86 -999 -999 -999  
2001-08-21 10:28:53 51°20.324 2°49.814 -999 -999 -999  
2001-08-21 10:29:53 51°20.307 2°49.769 -999 -999 -999  
2001-08-21 10:30:53 51°20.302 2°49.725 -999 -999 -999  
2001-08-21 10:31:53 51°20.412 2°49.69 -999 -999 -999  
2001-08-21 10:32:53 51°20.609 2°49.703 -999 -999 -999  
2001-08-21 10:33:53 51°20.814 2°49.703 -999 -999 -999  
2001-08-21 10:34:53 51°21.021 2°49.711 -999 -999 -999  
2001-08-21 10:35:53 51°21.227 2°49.725 -999 -999 -999  
2001-08-21 10:36:53 51°21.433 2°49.737 -999 -999 -999  
2001-08-21 10:37:53 51°21.636 2°49.752 -999 -999 -999  
2001-08-21 10:38:53 51°21.842 2°49.74 -999 -999 -999  
2001-08-21 10:39:53 51°22.047 2°49.731 -999 -999 -999  
2001-08-21 10:40:53 51°22.18 2°49.68 -999 -999 -999  
2001-08-21 10:41:53 51°22.215 2°49.619 -999 -999 -999  
2001-08-21 10:42:53 51°22.206 2°49.58 -999 -999 -999  
2001-08-21 10:43:53 51°22.197 2°49.545 -999 -999 -999  
2001-08-21 10:44:53 51°22.188 2°49.512 -999 -999 -999  
2001-08-21 10:45:53 51°22.179 2°49.479 -999 -999 -999  
2001-08-21 10:46:53 51°22.169 2°49.448 -999 -999 -999  
2001-08-21 10:47:53 51°22.158 2°49.418 -999 -999 -999  
2001-08-21 10:48:53 51°22.147 2°49.388 -999 -999 -999  
2001-08-21 10:49:53 51°22.134 2°49.36 -999 -999 -999  
2001-08-21 10:50:53 51°22.121 2°49.33 -999 -999 -999  
2001-08-21 10:51:53 51°22.107 2°49.301 -999 -999 -999  
2001-08-21 10:52:53 51°22.091 2°49.272 -999 -999 -999  
2001-08-21 10:53:53 51°22.076 2°49.242 -999 -999 -999  
2001-08-21 10:54:53 51°22.064 2°49.235 -999 -999 -999  
2001-08-21 10:55:53 51°22.088 2°49.258 -999 -999 -999  
2001-08-21 10:56:53 51°22.146 2°49.239 -999 -999 -999  
2001-08-21 10:57:53 51°22.215 2°49.209 -999 -999 -999  
2001-08-21 10:58:53 51°22.267 2°49.241 -999 -999 -999  
2001-08-21 10:59:53 51°22.281 2°49.286 -999 -999 -999  
2001-08-21 11:00:53 51°22.28 2°49.324 -999 -999 -999  
2001-08-21 11:01:53 51°22.281 2°49.356 -999 -999 -999  
2001-08-21 11:02:53 51°22.282 2°49.386 -999 -999 -999  
2001-08-21 11:03:54 51°22.28 2°49.416 -999 -999 -999  
2001-08-21 11:04:53 51°22.275 2°49.446 -999 -999 -999  
2001-08-21 11:05:53 51°22.271 2°49.479 -999 -999 -999  
2001-08-21 11:06:53 51°22.27 2°49.51 -999 -999 -999  
2001-08-21 11:07:53 51°22.27 2°49.541 -999 -999 -999  
2001-08-21 11:08:54 51°22.268 2°49.575 -999 -999 -999  
2001-08-21 11:09:53 51°22.265 2°49.608 -999 -999 -999  
2001-08-21 11:10:53 51°22.263 2°49.641 -999 -999 -999  
2001-08-21 11:11:53 51°22.284 2°49.744 -999 -999 -999  
2001-08-21 11:12:53 51°22.33 2°49.824 -999 -999 -999  
2001-08-21 11:13:53 51°22.339 2°49.802 -999 -999 -999  
2001-08-21 11:14:53 51°22.342 2°49.765 -999 -999 -999  
2001-08-21 11:15:53 51°22.342 2°49.726 -999 -999 -999  
2001-08-21 11:16:53 51°22.36 2°49.689 -999 -999 -999  
2001-08-21 11:17:53 51°22.404 2°49.686 -999 -999 -999  
2001-08-21 11:18:53 51°22.429 2°49.691 -999 -999 -999  
2001-08-21 11:19:54 51°22.454 2°49.701 -999 -999 -999  
2001-08-21 11:20:53 51°22.475 2°49.707 -999 -999 -999  
2001-08-21 11:21:53 51°22.49 2°49.708 -999 -999 -999  
2001-08-21 11:22:53 51°22.499 2°49.706 -999 -999 -999  
2001-08-21 11:23:53 51°22.504 2°49.703 -999 -999 -999  
2001-08-21 11:24:53 51°22.509 2°49.696 -999 -999 -999  
2001-08-21 11:25:53 51°22.502 2°49.68 -999 -999 -999  
2001-08-21 11:26:53 51°22.493 2°49.665 -999 -999 -999  
2001-08-21 11:27:53 51°22.485 2°49.655 -999 -999 -999  
2001-08-21 11:28:53 51°22.476 2°49.644 -999 -999 -999  
2001-08-21 11:29:53 51°22.471 2°49.654 -999 -999 -999  
2001-08-21 11:30:53 51°22.586 2°49.712 -999 -999 -999  
2001-08-21 11:31:53 51°22.787 2°49.656 -999 -999 -999  
2001-08-21 11:32:53 51°22.992 2°49.592 -999 -999 -999  
2001-08-21 11:33:53 51°23.197 2°49.535 -999 -999 -999  
2001-08-21 11:34:53 51°23.402 2°49.466 -999 -999 -999  
2001-08-21 11:35:53 51°23.606 2°49.383 -999 -999 -999  
2001-08-21 11:36:53 51°23.811 2°49.299 -999 -999 -999  
2001-08-21 11:37:53 51°24.016 2°49.211 -999 -999 -999  
2001-08-21 11:38:53 51°24.165 2°49.149 -999 -999 -999  
2001-08-21 11:39:53 51°24.191 2°49.147 -999 -999 -999  
2001-08-21 11:40:53 51°24.186 2°49.15 -999 -999 -999  
2001-08-21 11:41:54 51°24.176 2°49.15 -999 -999 -999  
2001-08-21 11:42:53 51°24.166 2°49.148 -999 -999 -999  
2001-08-21 11:43:53 51°24.165 2°49.158 -999 -999 -999  
2001-08-21 11:44:53 51°24.171 2°49.167 -999 -999 -999  
2001-08-21 11:45:53 51°24.178 2°49.168 -999 -999 -999  
2001-08-21 11:46:53 51°24.183 2°49.166 -999 -999 -999  
2001-08-21 11:47:53 51°24.187 2°49.164 -999 -999 -999  
2001-08-21 11:48:53 51°24.192 2°49.163 -999 -999 -999  
2001-08-21 11:49:53 51°24.196 2°49.161 -999 -999 -999  
2001-08-21 11:50:53 51°24.201 2°49.159 -999 -999 -999  
2001-08-21 11:51:53 51°24.205 2°49.157 -999 -999 -999  
2001-08-21 11:52:53 51°24.21 2°49.155 -999 -999 -999  
2001-08-21 11:53:53 51°24.215 2°49.154 -999 -999 -999  
2001-08-21 11:54:53 51°24.219 2°49.15 -999 -999 -999  
2001-08-21 11:55:53 51°24.222 2°49.145 -999 -999 -999  
2001-08-21 11:56:53 51°24.224 2°49.14 -999 -999 -999  
2001-08-21 11:57:53 51°24.221 2°49.135 -999 -999 -999  
2001-08-21 11:58:53 51°24.214 2°49.128 -999 -999 -999  
2001-08-21 11:59:52 51°24.209 2°49.122 -999 -999 -999  
2001-08-21 12:00:53 51°24.203 2°49.118 -999 -999 -999  
2001-08-21 12:01:53 51°24.198 2°49.116 -999 -999 -999  
2001-08-21 12:02:52 51°24.211 2°49.132 -999 -999 -999  
2001-08-21 12:03:53 51°24.261 2°49.153 -999 -999 -999  
2001-08-21 12:04:53 51°24.347 2°49.144 -999 -999 -999  
2001-08-21 12:05:53 51°24.446 2°49.123 -999 -999 -999  
2001-08-21 12:06:53 51°24.578 2°49.079 -999 -999 -999  
2001-08-21 12:07:53 51°24.749 2°49.027 -999 -999 -999  
2001-08-21 12:08:53 51°24.924 2°48.963 -999 -999 -999  
2001-08-21 12:09:53 51°25.092 2°48.896 -999 -999 -999  
2001-08-21 12:10:53 51°25.205 2°48.845 -999 -999 -999  
2001-08-21 12:11:53 51°25.295 2°48.8 -999 -999 -999  
2001-08-21 12:12:53 51°25.38 2°48.775 -999 -999 -999  
2001-08-21 12:13:53 51°25.463 2°48.733 -999 -999 -999  
2001-08-21 12:14:53 51°25.629 2°48.632 -999 -999 -999  
2001-08-21 12:15:53 51°25.836 2°48.526 -999 -999 -999  
2001-08-21 12:16:53 51°26.036 2°48.441 -999 -999 -999  
2001-08-21 12:17:53 51°26.126 2°48.366 -999 -999 -999  
2001-08-21 12:18:53 51°26.133 2°48.356 -999 -999 -999  
2001-08-21 12:19:53 51°26.13 2°48.353 -999 -999 -999  
2001-08-21 12:20:53 51°26.127 2°48.353 -999 -999 -999  
2001-08-21 12:21:53 51°26.124 2°48.354 -999 -999 -999  
2001-08-21 12:22:53 51°26.127 2°48.367 -999 -999 -999  
2001-08-21 12:23:53 51°26.155 2°48.438 -999 -999 -999  
2001-08-21 12:24:53 51°26.174 2°48.513 -999 -999 -999  
2001-08-21 12:25:53 51°26.187 2°48.579 -999 -999 -999  
2001-08-21 12:26:53 51°26.201 2°48.635 -999 -999 -999  
2001-08-21 12:27:53 51°26.213 2°48.678 -999 -999 -999  
2001-08-21 12:28:53 51°26.223 2°48.716 -999 -999 -999  
2001-08-21 12:29:53 51°26.229 2°48.753 -999 -999 -999  
2001-08-21 12:30:53 51°26.233 2°48.789 -999 -999 -999  
2001-08-21 12:31:52 51°26.237 2°48.822 -999 -999 -999  
2001-08-21 12:32:53 51°26.237 2°48.843 -999 -999 -999  
2001-08-21 12:33:53 51°26.235 2°48.859 -999 -999 -999  
2001-08-21 12:34:53 51°26.234 2°48.878 -999 -999 -999  
2001-08-21 12:35:53 51°26.226 2°48.949 -999 -999 -999  
2001-08-21 12:36:53 51°26.168 2°48.998 -999 -999 -999  
2001-08-21 12:37:53 51°26.117 2°48.937 -999 -999 -999  
2001-08-21 12:38:52 51°26.139 2°48.849 -999 -999 -999  
2001-08-21 12:39:53 51°26.228 2°48.803 -999 -999 -999  
2001-08-21 12:40:53 51°26.342 2°48.742 -999 -999 -999  
2001-08-21 12:41:53 51°26.465 2°48.692 -999 -999 -999  
2001-08-21 12:42:53 51°26.589 2°48.648 -999 -999 -999  
2001-08-21 12:43:53 51°26.717 2°48.611 -999 -999 -999  
2001-08-21 12:44:53 51°26.888 2°48.558 -999 -999 -999  
2001-08-21 12:45:53 51°27.11 2°48.507 -999 -999 -999  
2001-08-21 12:46:53 51°27.334 2°48.458 -999 -999 -999  
2001-08-21 12:47:53 51°27.563 2°48.433 -999 -999 -999  
2001-08-21 12:48:53 51°27.79 2°48.398 -999 -999 -999  
2001-08-21 12:49:53 51°28.014 2°48.35 -999 -999 -999  
2001-08-21 12:50:53 51°28.214 2°48.297 -999 -999 -999  
2001-08-21 12:51:53 51°28.299 2°48.284 -999 -999 -999  
2001-08-21 12:52:53 51°28.311 2°48.312 -999 -999 -999  
2001-08-21 12:53:53 51°28.32 2°48.338 -999 -999 -999  
2001-08-21 12:54:53 51°28.329 2°48.368 -999 -999 -999  
2001-08-21 12:55:53 51°28.338 2°48.4 -999 -999 -999  
2001-08-21 12:56:53 51°28.347 2°48.434 -999 -999 -999  
2001-08-21 12:57:53 51°28.357 2°48.469 -999 -999 -999  
2001-08-21 12:58:53 51°28.366 2°48.507 -999 -999 -999  
2001-08-21 12:59:53 51°28.378 2°48.56 -999 -999 -999  
2001-08-21 13:00:53 51°28.392 2°48.621 -999 -999 -999  
2001-08-21 13:01:53 51°28.404 2°48.681 -999 -999 -999  
2001-08-21 13:02:53 51°28.417 2°48.739 -999 -999 -999  
2001-08-21 13:03:53 51°28.429 2°48.796 -999 -999 -999  
2001-08-21 13:04:53 51°28.443 2°48.85 -999 -999 -999  
2001-08-21 13:05:55 51°28.458 2°48.907 -999 -999 -999  
2001-08-21 13:06:53 51°28.472 2°48.961 -999 -999 -999  
2001-08-21 13:07:53 51°28.485 2°49.013 -999 -999 -999  
2001-08-21 13:08:53 51°28.5 2°49.063 -999 -999 -999  
2001-08-21 13:09:55 51°28.599 2°49.126 -999 -999 -999  
2001-08-21 13:10:53 51°28.808 2°49.091 -999 -999 -999  
2001-08-21 13:11:53 51°29.029 2°48.992 -999 -999 -999  
2001-08-21 13:12:53 51°29.246 2°48.876 -999 -999 -999  
2001-08-21 13:13:53 51°29.455 2°48.742 -999 -999 -999  
2001-08-21 13:14:53 51°29.667 2°48.617 -999 -999 -999  
2001-08-21 13:15:53 51°29.863 2°48.452 -999 -999 -999  
2001-08-21 13:16:55 51°30.066 2°48.278 -999 -999 -999  
2001-08-21 13:17:53 51°30.256 2°48.111 -999 -999 -999  
2001-08-21 13:18:53 51°30.413 2°48.026 -999 -999 -999  
2001-08-21 13:19:53 51°30.477 2°48.062 -999 -999 -999  
2001-08-21 13:20:55 51°30.483 2°48.073 -999 -999 -999  
2001-08-21 13:21:53 51°30.491 2°48.093 -999 -999 -999  
2001-08-21 13:22:53 51°30.5 2°48.117 -999 -999 -999  
2001-08-21 13:23:55 51°30.52 2°48.157 -999 -999 -999  
2001-08-21 13:24:55 51°30.555 2°48.218 -999 -999 -999  
2001-08-21 13:25:53 51°30.566 2°48.233 -999 -999 -999  
2001-08-21 13:26:53 51°30.59 2°48.301 -999 -999 -999  
2001-08-21 13:27:55 51°30.612 2°48.368 -999 -999 -999  
2001-08-21 13:28:55 51°30.634 2°48.429 -999 -999 -999  
2001-08-21 13:29:53 51°30.649 2°48.489 -999 -999 -999  
2001-08-21 13:30:53 51°30.667 2°48.548 -999 -999 -999  
2001-08-21 13:31:55 51°30.687 2°48.606 -999 -999 -999  
2001-08-21 13:32:53 51°30.705 2°48.659 -999 -999 -999  
2001-08-21 13:33:53 51°30.725 2°48.713 -999 -999 -999  
2001-08-21 13:34:55 51°30.746 2°48.767 -999 -999 -999  
2001-08-21 13:35:55 51°30.768 2°48.82 -999 -999 -999  
2001-08-21 13:36:53 51°30.789 2°48.869 -999 -999 -999  
2001-08-21 13:37:53 51°30.836 2°48.942 -999 -999 -999  
2001-08-21 13:38:55 51°31.03 2°48.908 -999 -999 -999  
2001-08-21 13:39:55 51°31.248 2°48.792 -999 -999 -999  
2001-08-21 13:40:53 51°31.462 2°48.681 -999 -999 -999  
2001-08-21 13:41:55 51°31.691 2°48.562 -999 -999 -999  
2001-08-21 13:42:55 51°31.915 2°48.459 -999 -999 -999  
2001-08-21 13:43:55 51°32.148 2°48.389 -999 -999 -999  
2001-08-21 13:44:53 51°32.368 2°48.297 -999 -999 -999  
2001-08-21 13:45:55 51°32.608 2°48.22 -999 -999 -999  
2001-08-21 13:46:55 51°32.84 2°48.151 -999 -999 -999  
2001-08-21 13:47:53 51°33.065 2°48.081 -999 -999 -999  
2001-08-21 13:48:55 51°33.296 2°47.972 -999 -999 -999  
2001-08-21 13:49:55 51°33.516 2°47.852 -999 -999 -999  
2001-08-21 13:50:55 51°33.744 2°47.756 -999 -999 -999  
2001-08-21 13:51:53 51°33.96 2°47.649 -999 -999 -999  
2001-08-21 13:52:55 51°34.193 2°47.543 -999 -999 -999  
2001-08-21 13:53:55 51°34.424 2°47.462 -999 -999 -999  
2001-08-21 13:54:55 51°34.646 2°47.389 -999 -999 -999  
2001-08-21 13:55:53 51°34.767 2°47.419 -999 -999 -999  
2001-08-21 13:56:55 51°34.798 2°47.454 -999 -999 -999  
2001-08-21 13:57:55 51°34.825 2°47.487 -999 -999 -999  
2001-08-21 13:58:53 51°34.852 2°47.522 -999 -999 -999  
2001-08-21 13:59:55 51°34.88 2°47.56 -999 -999 -999  
2001-08-21 14:00:55 51°34.918 2°47.624 -999 -999 -999  
2001-08-21 14:01:55 51°34.943 2°47.651 -999 -999 -999  
2001-08-21 14:02:55 51°34.968 2°47.679 -999 -999 -999  
2001-08-21 14:03:55 51°34.994 2°47.748 -999 -999 -999  
2001-08-21 14:04:55 51°35.015 2°47.812 -999 -999 -999  
2001-08-21 14:05:55 51°35.034 2°47.874 -999 -999 -999  
2001-08-21 14:06:53 51°35.049 2°47.959 -999 -999 -999  
2001-08-21 14:07:55 51°35.072 2°48.051 -999 -999 -999  
2001-08-21 14:08:54 51°35.096 2°48.129 -999 -999 -999  
2001-08-21 14:09:53 51°35.12 2°48.214 -999 -999 -999  
2001-08-21 14:10:55 51°35.143 2°48.298 -999 -999 -999  
2001-08-21 14:11:55 51°35.165 2°48.372 -999 -999 -999  
2001-08-21 14:12:55 51°35.191 2°48.44 -999 -999 -999  
2001-08-21 14:13:55 51°35.216 2°48.504 -999 -999 -999  
2001-08-21 14:14:55 51°35.204 2°48.665 -999 -999 -999  
2001-08-21 14:15:55 51°35.032 2°48.772 -999 -999 -999  
2001-08-21 14:16:55 51°34.831 2°48.858 -999 -999 -999  
2001-08-21 14:17:55 51°34.628 2°48.925 -999 -999 -999  
2001-08-21 14:18:55 51°34.424 2°48.984 -999 -999 -999  
2001-08-21 14:19:55 51°34.221 2°49.033 -999 -999 -999  
2001-08-21 14:20:55 51°34.018 2°49.051 -999 -999 -999  
2001-08-21 14:21:55 51°33.813 2°49.07 -999 -999 -999  
2001-08-21 14:22:55 51°33.61 2°49.09 -999 -999 -999  
2001-08-21 14:23:55 51°33.405 2°49.138 -999 -999 -999  
2001-08-21 14:24:55 51°33.201 2°49.153 -999 -999 -999  
2001-08-21 14:25:55 51°32.997 2°49.186 -999 -999 -999  
2001-08-21 14:26:55 51°32.793 2°49.209 -999 -999 -999  
2001-08-21 14:27:55 51°32.59 2°49.241 -999 -999 -999  
2001-08-21 14:28:55 51°32.385 2°49.252 -999 -999 -999  
2001-08-21 14:29:55 51°32.181 2°49.265 -999 -999 -999  
2001-08-21 14:30:53 51°31.984 2°49.264 -999 -999 -999  
2001-08-21 14:31:53 51°31.779 2°49.266 -999 -999 -999  
2001-08-21 14:32:55 51°31.568 2°49.269 -999 -999 -999  
2001-08-21 14:33:55 51°31.365 2°49.263 -999 -999 -999  
2001-08-21 14:34:53 51°31.169 2°49.282 -999 -999 -999  
2001-08-21 14:35:55 51°30.957 2°49.288 -999 -999 -999  
2001-08-21 14:36:55 51°30.752 2°49.307 -999 -999 -999  
2001-08-21 14:37:55 51°30.547 2°49.344 -999 -999 -999  
2001-08-21 14:38:55 51°30.342 2°49.374 -999 -999 -999  
2001-08-21 14:39:55 51°30.138 2°49.419 -999 -999 -999  
2001-08-21 14:40:55 51°29.934 2°49.457 -999 -999 -999  
2001-08-21 14:41:53 51°29.737 2°49.509 -999 -999 -999  
2001-08-21 14:42:55 51°29.527 2°49.57 -999 -999 -999  
2001-08-21 14:43:55 51°29.325 2°49.63 -999 -999 -999  
2001-08-21 14:44:55 51°29.124 2°49.684 -999 -999 -999  
2001-08-21 14:45:53 51°28.928 2°49.738 -999 -999 -999  
2001-08-21 14:46:55 51°28.719 2°49.795 -999 -999 -999  
2001-08-21 14:47:55 51°28.514 2°49.846 -999 -999 -999  
2001-08-21 14:48:55 51°28.308 2°49.893 -999 -999 -999  
2001-08-21 14:49:53 51°28.108 2°49.932 -999 -999 -999  
2001-08-21 14:50:55 51°27.896 2°49.974 -999 -999 -999  
2001-08-21 14:51:53 51°27.697 2°50.021 -999 -999 -999  
2001-08-21 14:52:55 51°27.485 2°50.068 -999 -999 -999  
2001-08-21 14:53:55 51°27.279 2°50.105 -999 -999 -999  
2001-08-21 14:54:55 51°27.072 2°50.145 -999 -999 -999  
2001-08-21 14:55:55 51°26.867 2°50.191 -999 -999 -999  
2001-08-21 14:56:55 51°26.662 2°50.241 -999 -999 -999  
2001-08-21 14:57:55 51°26.459 2°50.296 -999 -999 -999  
2001-08-21 14:58:53 51°26.264 2°50.354 -999 -999 -999  
2001-08-21 14:59:55 51°26.055 2°50.412 -999 -999 -999  
2001-08-21 15:00:55 51°25.852 2°50.476 -999 -999 -999  
2001-08-21 15:01:55 51°25.647 2°50.531 -999 -999 -999  
2001-08-21 15:02:53 51°25.448 2°50.581 -999 -999 -999  
2001-08-21 15:03:55 51°25.235 2°50.627 -999 -999 -999  
2001-08-21 15:04:55 51°25.03 2°50.672 -999 -999 -999  
2001-08-21 15:05:55 51°24.825 2°50.714 -999 -999 -999  
2001-08-21 15:06:55 51°24.62 2°50.785 -999 -999 -999  
2001-08-21 15:07:53 51°24.422 2°50.859 -999 -999 -999  
2001-08-21 15:08:55 51°24.211 2°50.941 -999 -999 -999  
2001-08-21 15:09:55 51°24.004 2°51.007 -999 -999 -999  
2001-08-21 15:10:55 51°23.796 2°51.07 -999 -999 -999  
2001-08-21 15:11:55 51°23.589 2°51.139 -999 -999 -999  
2001-08-21 15:12:55 51°23.383 2°51.198 -999 -999 -999  
2001-08-21 15:13:55 51°23.178 2°51.258 -999 -999 -999  
2001-08-21 15:14:55 51°22.973 2°51.33 -999 -999 -999  
2001-08-21 15:15:55 51°22.766 2°51.404 -999 -999 -999  
2001-08-21 15:16:55 51°22.565 2°51.469 -999 -999 -999  
2001-08-21 15:17:55 51°22.362 2°51.532 -999 -999 -999  
2001-08-21 15:18:55 51°22.162 2°51.607 -999 -999 -999  
2001-08-21 15:19:55 51°21.962 2°51.683 -999 -999 -999  
2001-08-21 15:20:55 51°21.758 2°51.758 -999 -999 -999  
2001-08-21 15:21:55 51°21.551 2°51.83 -999 -999 -999  
2001-08-21 15:22:55 51°21.342 2°51.911 -999 -999 -999  
2001-08-21 15:23:55 51°21.134 2°51.981 -999 -999 -999  
2001-08-21 15:24:55 51°20.925 2°52.038 -999 -999 -999  
2001-08-21 15:25:55 51°20.716 2°52.094 -999 -999 -999  
2001-08-21 15:26:55 51°20.506 2°52.139 -999 -999 -999  
2001-08-21 15:27:55 51°20.295 2°52.184 -999 -999 -999  
2001-08-21 15:28:55 51°20.083 2°52.234 -999 -999 -999  
2001-08-21 15:29:55 51°19.87 2°52.273 -999 -999 -999  
2001-08-21 15:30:55 51°19.659 2°52.308 -999 -999 -999  
2001-08-21 15:31:55 51°19.449 2°52.352 -999 -999 -999  
2001-08-21 15:32:55 51°19.24 2°52.361 -999 -999 -999  
2001-08-21 15:33:55 51°19.031 2°52.369 -999 -999 -999  
2001-08-21 15:34:55 51°18.822 2°52.388 -999 -999 -999  
2001-08-21 15:35:55 51°18.613 2°52.396 -999 -999 -999  
2001-08-21 15:36:55 51°18.404 2°52.397 -999 -999 -999  
2001-08-21 15:37:55 51°18.195 2°52.407 -999 -999 -999  
2001-08-21 15:38:55 51°17.986 2°52.425 -999 -999 -999  
2001-08-21 15:39:55 51°17.778 2°52.442 -999 -999 -999  
2001-08-21 15:40:55 51°17.569 2°52.459 -999 -999 -999  
2001-08-21 15:41:55 51°17.361 2°52.512 -999 -999 -999  
2001-08-21 15:42:55 51°17.157 2°52.616 -999 -999 -999  
2001-08-21 15:43:55 51°16.959 2°52.756 -999 -999 -999  
2001-08-21 15:44:55 51°16.769 2°52.923 -999 -999 -999  
2001-08-21 15:45:55 51°16.575 2°53.094 -999 -999 -999  
2001-08-21 15:46:55 51°16.378 2°53.252 -999 -999 -999  
2001-08-21 15:47:55 51°16.182 2°53.412 -999 -999 -999  
2001-08-21 15:48:55 51°15.987 2°53.58 -999 -999 -999  
2001-08-21 15:49:55 51°15.788 2°53.732 -999 -999 -999  
2001-08-21 15:50:55 51°15.587 2°53.876 -999 -999 -999  
2001-08-21 15:51:55 51°15.385 2°54.017 -999 -999 -999  
2001-08-21 15:52:55 51°15.189 2°54.178 -999 -999 -999  
2001-08-21 15:53:55 51°15.011 2°54.388 -999 -999 -999  
2001-08-21 15:54:55 51°14.885 2°54.55 -999 -999 -999  
2001-08-21 15:55:55 51°14.815 2°54.658 -999 -999 -999  
2001-08-21 15:56:55 51°14.759 2°54.736 -999 -999 -999  
2001-08-21 15:57:55 51°14.707 2°54.799 -999 -999 -999  
2001-08-21 15:58:55 51°14.662 2°54.861 -999 -999 -999  
2001-08-21 15:59:55 51°14.672 2°54.881 -999 -999 -999  
2001-08-21 16:00:55 51°14.661 2°54.901 -999 -999 -999  
2001-08-21 16:01:55 51°14.642 2°54.909 -999 -999 -999  
2001-08-21 16:02:55 51°14.554 2°54.924 -999 -999 -999  
2001-08-21 16:03:55 51°14.375 2°55.027 -999 -999 -999  
2001-08-21 16:04:55 51°14.242 2°55.278 -999 -999 -999  
2001-08-21 16:05:54 51°14.132 2°55.405 -999 -999 -999  
2001-08-21 16:06:55 51°14.051 2°55.461 -999 -999 -999  
2001-08-21 16:07:53 51°13.977 2°55.517 -999 -999 -999  
2001-08-21 16:08:53 51°13.88 2°55.585 -999 -999 -999  
2001-08-21 16:09:53 51°13.786 2°55.665 -999 -999 -999  
2001-08-21 16:10:53 51°13.73 2°55.743 -999 -999 -999  
2001-08-21 16:11:53 51°13.708 2°55.807 -999 -999 -999  
2001-08-21 16:12:59 51°13.693 2°55.864 -999 -999 -999  
2001-08-21 16:13:59 51°13.681 2°55.911 -999 -999 -999  
2001-08-21 16:14:59 51°13.678 2°55.919 -999 -999 -999  
2001-08-21 16:15:59 51°13.677 2°55.922 -999 -999 -999  
2001-08-21 16:16:59 51°13.677 2°55.922 -999 -999 -999  
2001-08-21 16:17:59 51°13.678 2°55.922 -999 -999 -999